createdAt,value
2022-12-01T00:00:39.208Z,0.00
2022-12-01T00:01:39.247Z,0.00
2022-12-01T00:02:39.335Z,0.00
2022-12-01T00:03:39.171Z,0.00
2022-12-01T00:04:39.152Z,0.00
2022-12-01T00:05:39.151Z,0.00
2022-12-01T00:06:39.131Z,0.00
2022-12-01T00:07:39.183Z,0.00
2022-12-01T00:08:39.121Z,0.00
2022-12-01T00:09:39.102Z,0.00
2022-12-01T00:10:39.083Z,0.00
2022-12-01T00:11:39.081Z,0.00
2022-12-01T00:12:39.062Z,0.00
2022-12-01T00:13:39.070Z,0.00
2022-12-01T00:14:39.046Z,0.00
2022-12-01T00:15:39.041Z,0.00
2022-12-01T00:16:39.162Z,0.00
2022-12-01T00:17:39.024Z,0.00
2022-12-01T00:18:38.994Z,0.00
2022-12-01T00:19:39.017Z,0.00
2022-12-01T00:20:38.983Z,0.00
2022-12-01T00:21:38.970Z,0.00
2022-12-01T00:22:38.951Z,0.00
2022-12-01T00:23:38.952Z,0.00
2022-12-01T00:24:38.939Z,0.00
2022-12-01T00:25:38.970Z,0.00
2022-12-01T00:26:38.909Z,0.00
2022-12-01T00:27:38.948Z,0.00
2022-12-01T00:28:38.890Z,0.00
2022-12-01T00:29:38.901Z,0.00
2022-12-01T00:30:38.870Z,0.00
2022-12-01T00:31:39.021Z,0.00
2022-12-01T00:32:38.849Z,0.00
2022-12-01T00:33:38.849Z,0.00
2022-12-01T00:34:38.839Z,0.00
2022-12-01T00:35:38.876Z,0.00
2022-12-01T00:36:38.830Z,0.00
2022-12-01T00:37:38.842Z,0.00
2022-12-01T00:38:38.789Z,0.00
2022-12-01T00:39:38.799Z,0.00
2022-12-01T00:40:38.798Z,0.00
2022-12-01T00:41:38.757Z,0.00
2022-12-01T00:42:38.739Z,0.00
2022-12-01T00:43:38.728Z,0.00
2022-12-01T00:44:38.718Z,0.00
2022-12-01T00:45:38.784Z,0.00
2022-12-01T00:46:38.737Z,0.00
2022-12-01T00:47:38.688Z,0.00
2022-12-01T00:48:38.675Z,0.00
2022-12-01T00:49:38.672Z,0.00
2022-12-01T00:50:38.655Z,0.00
2022-12-01T00:51:38.647Z,0.00
2022-12-01T00:52:38.665Z,0.00
2022-12-01T00:53:38.648Z,0.00
2022-12-01T00:54:38.619Z,0.00
2022-12-01T00:55:38.616Z,0.00
2022-12-01T00:56:38.604Z,0.00
2022-12-01T00:57:38.578Z,0.00
2022-12-01T00:58:38.575Z,0.00
2022-12-01T00:59:38.558Z,0.00
2022-12-01T01:00:38.539Z,0.00
2022-12-01T01:01:38.576Z,0.00
2022-12-01T01:02:38.556Z,0.00
2022-12-01T01:03:38.517Z,0.00
2022-12-01T01:04:38.507Z,0.00
2022-12-01T01:05:38.500Z,0.00
2022-12-01T01:06:38.479Z,0.00
2022-12-01T01:07:38.512Z,0.00
2022-12-01T01:08:38.454Z,0.00
2022-12-01T01:09:38.482Z,0.00
2022-12-01T01:10:38.436Z,0.00
2022-12-01T01:11:38.446Z,0.00
2022-12-01T01:12:38.414Z,0.00
2022-12-01T01:13:38.446Z,0.00
2022-12-01T01:14:38.394Z,0.00
2022-12-01T01:15:38.393Z,0.00
2022-12-01T01:16:38.461Z,0.00
2022-12-01T01:17:38.364Z,0.00
2022-12-01T01:18:38.352Z,0.00
2022-12-01T01:19:38.342Z,0.00
2022-12-01T01:20:38.332Z,0.00
2022-12-01T01:21:38.357Z,0.00
2022-12-01T01:22:38.314Z,0.00
2022-12-01T01:23:38.309Z,0.00
2022-12-01T01:24:38.291Z,0.00
2022-12-01T01:25:38.302Z,0.00
2022-12-01T01:26:38.306Z,0.00
2022-12-01T01:27:38.288Z,0.00
2022-12-01T01:28:38.247Z,0.00
2022-12-01T01:29:38.233Z,0.00
2022-12-01T01:30:38.247Z,0.00
2022-12-01T01:31:38.222Z,0.00
2022-12-01T01:32:38.202Z,0.00
2022-12-01T01:33:38.203Z,0.00
2022-12-01T01:34:38.178Z,0.00
2022-12-01T01:35:38.173Z,0.00
2022-12-01T01:36:38.172Z,0.00
2022-12-01T01:37:38.153Z,0.00
2022-12-01T01:38:38.131Z,0.00
2022-12-01T01:39:38.133Z,0.00
2022-12-01T01:40:38.147Z,0.00
2022-12-01T01:41:38.123Z,0.00
2022-12-01T01:42:38.089Z,0.00
2022-12-01T01:43:38.083Z,0.00
2022-12-01T01:44:38.065Z,0.00
2022-12-01T01:45:38.129Z,0.00
2022-12-01T01:46:38.060Z,0.00
2022-12-01T01:47:38.048Z,0.00
2022-12-01T01:48:38.030Z,0.00
2022-12-01T01:49:38.029Z,0.00
2022-12-01T01:50:38.006Z,0.00
2022-12-01T01:51:38.033Z,0.00
2022-12-01T01:52:37.980Z,0.00
2022-12-01T01:53:37.982Z,0.00
2022-12-01T01:54:37.973Z,0.00
2022-12-01T01:55:37.964Z,0.00
2022-12-01T01:56:37.945Z,0.00
2022-12-01T01:57:37.969Z,0.00
2022-12-01T01:58:37.919Z,0.00
2022-12-01T01:59:37.910Z,0.00
2022-12-01T02:00:37.899Z,0.00
2022-12-01T02:01:37.936Z,0.00
2022-12-01T02:02:37.946Z,0.00
2022-12-01T02:03:37.871Z,0.00
2022-12-01T02:04:37.873Z,0.00
2022-12-01T02:05:37.849Z,0.00
2022-12-01T02:06:37.839Z,0.00
2022-12-01T02:07:37.879Z,0.00
2022-12-01T02:08:37.824Z,0.00
2022-12-01T02:09:37.809Z,0.00
2022-12-01T02:10:37.789Z,0.00
2022-12-01T02:11:37.785Z,0.00
2022-12-01T02:12:37.768Z,0.00
2022-12-01T02:13:37.770Z,0.00
2022-12-01T02:14:37.749Z,0.00
2022-12-01T02:15:37.761Z,0.00
2022-12-01T02:16:37.818Z,0.00
2022-12-01T02:17:41.723Z,0.00
2022-12-01T02:18:37.709Z,0.00
2022-12-01T02:19:37.693Z,0.00
2022-12-01T02:20:37.689Z,0.00
2022-12-01T02:21:37.667Z,0.00
2022-12-01T02:22:37.677Z,0.00
2022-12-01T02:23:37.655Z,0.00
2022-12-01T02:24:37.667Z,0.00
2022-12-01T02:25:37.636Z,0.00
2022-12-01T02:26:37.642Z,0.00
2022-12-01T02:27:37.694Z,0.00
2022-12-01T02:28:37.626Z,0.00
2022-12-01T02:29:37.605Z,0.00
2022-12-01T02:30:37.624Z,0.00
2022-12-01T02:31:37.576Z,0.00
2022-12-01T02:32:37.566Z,0.00
2022-12-01T02:33:37.555Z,0.00
2022-12-01T02:34:37.530Z,0.00
2022-12-01T02:35:37.516Z,0.00
2022-12-01T02:36:37.551Z,0.00
2022-12-01T02:37:37.525Z,0.00
2022-12-01T02:38:37.485Z,0.00
2022-12-01T02:39:37.474Z,0.00
2022-12-01T02:40:37.485Z,0.00
2022-12-01T02:41:37.445Z,0.00
2022-12-01T02:42:37.486Z,0.00
2022-12-01T02:43:37.432Z,0.00
2022-12-01T02:44:37.421Z,0.00
2022-12-01T02:45:37.405Z,0.00
2022-12-01T02:46:37.465Z,0.00
2022-12-01T02:47:37.384Z,0.00
2022-12-01T02:48:37.394Z,0.00
2022-12-01T02:49:37.373Z,0.00
2022-12-01T02:50:37.402Z,0.00
2022-12-01T02:51:37.334Z,0.00
2022-12-01T02:52:37.339Z,0.00
2022-12-01T02:53:37.323Z,0.00
2022-12-01T02:54:37.312Z,0.00
2022-12-01T02:55:37.294Z,0.00
2022-12-01T02:56:37.293Z,0.00
2022-12-01T02:57:37.284Z,0.00
2022-12-01T02:58:37.274Z,0.00
2022-12-01T02:59:37.254Z,0.00
2022-12-01T03:00:37.253Z,0.00
2022-12-01T03:01:37.273Z,0.00
2022-12-01T03:02:37.309Z,0.00
2022-12-01T03:03:37.223Z,0.00
2022-12-01T03:04:37.232Z,0.00
2022-12-01T03:05:37.200Z,0.00
2022-12-01T03:06:37.182Z,0.00
2022-12-01T03:07:37.210Z,0.00
2022-12-01T03:08:37.172Z,0.00
2022-12-01T03:09:37.143Z,0.00
2022-12-01T03:10:37.140Z,0.00
2022-12-01T03:11:37.152Z,0.00
2022-12-01T03:12:37.127Z,0.00
2022-12-01T03:13:37.121Z,0.00
2022-12-01T03:14:37.114Z,0.00
2022-12-01T03:15:37.136Z,0.00
2022-12-01T03:16:37.119Z,0.00
2022-12-01T03:17:37.069Z,0.00
2022-12-01T03:18:37.073Z,0.00
2022-12-01T03:19:37.030Z,0.00
2022-12-01T03:20:37.029Z,0.00
2022-12-01T03:21:37.010Z,0.00
2022-12-01T03:22:37.009Z,0.00
2022-12-01T03:23:37.032Z,0.00
2022-12-01T03:24:36.990Z,0.00
2022-12-01T03:25:37.020Z,0.00
2022-12-01T03:26:36.969Z,0.00
2022-12-01T03:27:36.948Z,0.00
2022-12-01T03:28:37.001Z,0.00
2022-12-01T03:29:36.928Z,0.00
2022-12-01T03:30:36.996Z,0.00
2022-12-01T03:31:36.972Z,0.00
2022-12-01T03:32:36.899Z,0.00
2022-12-01T03:33:36.927Z,0.00
2022-12-01T03:34:36.881Z,0.00
2022-12-01T03:35:36.869Z,0.00
2022-12-01T03:36:36.858Z,0.00
2022-12-01T03:37:36.839Z,0.00
2022-12-01T03:38:36.876Z,0.00
2022-12-01T03:39:36.828Z,0.00
2022-12-01T03:40:36.809Z,0.00
2022-12-01T03:41:36.830Z,0.00
2022-12-01T03:42:36.858Z,0.00
2022-12-01T03:43:36.779Z,0.00
2022-12-01T03:44:36.808Z,0.00
2022-12-01T03:45:36.759Z,0.00
2022-12-01T03:46:36.784Z,0.00
2022-12-01T03:47:36.736Z,0.00
2022-12-01T03:48:36.727Z,0.00
2022-12-01T03:49:36.708Z,0.00
2022-12-01T03:50:36.696Z,0.00
2022-12-01T03:51:37.352Z,0.00
2022-12-01T03:52:36.680Z,0.00
2022-12-01T03:53:36.667Z,0.00
2022-12-01T03:54:36.689Z,0.00
2022-12-01T03:55:36.654Z,0.00
2022-12-01T03:56:36.636Z,0.00
2022-12-01T03:57:36.617Z,0.00
2022-12-01T03:58:36.639Z,0.00
2022-12-01T03:59:36.607Z,0.00
2022-12-01T04:00:36.607Z,0.00
2022-12-01T04:01:36.635Z,0.00
2022-12-01T04:02:36.613Z,0.00
2022-12-01T04:03:36.555Z,0.00
2022-12-01T04:04:36.557Z,0.00
2022-12-01T04:05:36.543Z,0.00
2022-12-01T04:06:36.555Z,0.00
2022-12-01T04:07:36.560Z,0.00
2022-12-01T04:08:36.515Z,0.00
2022-12-01T04:09:36.511Z,0.00
2022-12-01T04:10:36.497Z,0.00
2022-12-01T04:11:36.478Z,0.00
2022-12-01T04:12:36.465Z,0.00
2022-12-01T04:13:36.455Z,0.00
2022-12-01T04:14:36.445Z,0.00
2022-12-01T04:15:36.425Z,0.00
2022-12-01T04:16:36.553Z,0.00
2022-12-01T04:17:36.425Z,0.00
2022-12-01T04:18:36.402Z,0.00
2022-12-01T04:19:37.049Z,0.00
2022-12-01T04:20:36.377Z,0.00
2022-12-01T04:21:36.364Z,0.00
2022-12-01T04:22:36.356Z,0.00
2022-12-01T04:23:36.393Z,0.00
2022-12-01T04:24:36.361Z,0.00
2022-12-01T04:25:36.324Z,0.00
2022-12-01T04:26:36.319Z,0.00
2022-12-01T04:27:36.347Z,0.00
2022-12-01T04:28:36.295Z,0.00
2022-12-01T04:29:36.293Z,0.00
2022-12-01T04:30:36.318Z,0.00
2022-12-01T04:31:36.321Z,0.00
2022-12-01T04:32:36.245Z,0.00
2022-12-01T04:33:36.260Z,0.00
2022-12-01T04:34:36.236Z,0.00
2022-12-01T04:35:36.213Z,0.00
2022-12-01T04:36:36.255Z,0.00
2022-12-01T04:37:36.193Z,0.00
2022-12-01T04:38:36.182Z,0.00
2022-12-01T04:39:36.216Z,0.00
2022-12-01T04:40:36.172Z,0.00
2022-12-01T04:41:36.183Z,0.00
2022-12-01T04:42:36.282Z,0.00
2022-12-01T04:43:36.112Z,0.00
2022-12-01T04:44:36.126Z,0.00
2022-12-01T04:45:36.098Z,0.00
2022-12-01T04:46:36.149Z,0.00
2022-12-01T04:47:36.088Z,0.00
2022-12-01T04:48:36.071Z,0.00
2022-12-01T04:49:36.058Z,0.00
2022-12-01T04:50:36.041Z,0.00
2022-12-01T04:51:36.049Z,0.00
2022-12-01T04:52:36.021Z,0.00
2022-12-01T04:53:36.029Z,0.00
2022-12-01T04:54:36.148Z,0.00
2022-12-01T04:55:35.987Z,0.00
2022-12-01T04:56:36.000Z,0.00
2022-12-01T04:57:35.969Z,0.00
2022-12-01T04:58:35.981Z,0.00
2022-12-01T04:59:35.957Z,0.00
2022-12-01T05:00:36.001Z,0.00
2022-12-01T05:01:35.983Z,0.00
2022-12-01T05:02:35.931Z,0.00
2022-12-01T05:03:36.048Z,0.00
2022-12-01T05:04:35.904Z,0.00
2022-12-01T05:05:35.891Z,0.00
2022-12-01T05:06:35.892Z,0.00
2022-12-01T05:07:35.971Z,0.00
2022-12-01T05:08:35.861Z,0.00
2022-12-01T05:09:35.841Z,0.00
2022-12-01T05:10:35.839Z,0.00
2022-12-01T05:11:35.946Z,0.00
2022-12-01T05:12:36.509Z,0.00
2022-12-01T05:13:35.798Z,0.00
2022-12-01T05:14:35.801Z,0.00
2022-12-01T05:15:36.114Z,0.00
2022-12-01T05:16:35.875Z,0.00
2022-12-01T05:17:37.241Z,0.00
2022-12-01T05:18:35.866Z,0.00
2022-12-01T05:19:35.727Z,0.00
2022-12-01T05:20:35.819Z,0.00
2022-12-01T05:21:35.708Z,0.00
2022-12-01T05:23:03.817Z,0.00
2022-12-01T05:23:36.691Z,0.00
2022-12-01T05:24:35.689Z,0.00
2022-12-01T05:25:35.675Z,0.00
2022-12-01T05:26:35.669Z,0.00
2022-12-01T05:27:35.647Z,0.00
2022-12-01T05:28:35.638Z,0.00
2022-12-01T05:29:35.633Z,0.00
2022-12-01T05:30:35.627Z,0.00
2022-12-01T05:31:36.630Z,0.00
2022-12-01T05:32:35.627Z,0.00
2022-12-01T05:33:35.598Z,0.00
2022-12-01T05:34:35.570Z,0.00
2022-12-01T05:35:35.604Z,0.00
2022-12-01T05:36:35.555Z,0.00
2022-12-01T05:37:35.539Z,0.00
2022-12-01T05:38:35.535Z,0.00
2022-12-01T05:39:35.515Z,0.00
2022-12-01T05:40:35.541Z,0.00
2022-12-01T05:41:35.499Z,0.00
2022-12-01T05:42:35.506Z,0.00
2022-12-01T05:43:35.465Z,0.00
2022-12-01T05:44:35.463Z,0.00
2022-12-01T05:45:35.551Z,0.00
2022-12-01T05:46:35.445Z,0.00
2022-12-01T05:47:35.434Z,0.00
2022-12-01T05:48:35.426Z,0.00
2022-12-01T05:49:35.425Z,0.00
2022-12-01T05:50:35.415Z,0.00
2022-12-01T05:51:35.385Z,0.00
2022-12-01T05:52:35.376Z,0.00
2022-12-01T05:53:35.377Z,0.00
2022-12-01T05:54:35.355Z,0.00
2022-12-01T05:55:35.335Z,0.00
2022-12-01T05:56:35.335Z,0.00
2022-12-01T05:57:35.347Z,0.00
2022-12-01T05:58:35.316Z,0.00
2022-12-01T05:59:35.302Z,0.00
2022-12-01T06:00:37.557Z,0.00
2022-12-01T06:01:35.328Z,0.00
2022-12-01T06:02:35.272Z,0.00
2022-12-01T06:03:35.254Z,0.00
2022-12-01T06:04:35.277Z,0.00
2022-12-01T06:05:35.304Z,0.00
2022-12-01T06:06:35.240Z,0.00
2022-12-01T06:07:35.230Z,0.00
2022-12-01T06:08:35.203Z,0.00
2022-12-01T06:09:35.185Z,0.00
2022-12-01T06:10:35.268Z,0.00
2022-12-01T06:11:35.198Z,0.00
2022-12-01T06:12:35.162Z,0.00
2022-12-01T06:13:35.143Z,0.00
2022-12-01T06:14:35.141Z,0.00
2022-12-01T06:15:35.124Z,0.00
2022-12-01T06:16:35.190Z,0.00
2022-12-01T06:17:39.924Z,0.00
2022-12-01T06:18:36.091Z,0.00
2022-12-01T06:19:35.076Z,0.00
2022-12-01T06:20:35.114Z,0.00
2022-12-01T06:21:35.071Z,0.00
2022-12-01T06:22:35.070Z,0.00
2022-12-01T06:23:35.033Z,0.00
2022-12-01T06:24:35.023Z,0.00
2022-12-01T06:25:35.023Z,0.00
2022-12-01T06:26:35.008Z,0.00
2022-12-01T06:27:35.015Z,0.00
2022-12-01T06:28:34.995Z,0.00
2022-12-01T06:29:40.548Z,0.00
2022-12-01T06:30:35.965Z,0.00
2022-12-01T06:31:34.981Z,0.00
2022-12-01T06:32:34.938Z,0.00
2022-12-01T06:33:34.940Z,0.00
2022-12-01T06:34:34.935Z,0.00
2022-12-01T06:35:34.952Z,0.00
2022-12-01T06:36:34.924Z,0.00
2022-12-01T06:37:34.924Z,0.00
2022-12-01T06:38:34.879Z,0.00
2022-12-01T06:39:34.874Z,0.00
2022-12-01T06:40:34.859Z,0.00
2022-12-01T06:41:34.862Z,0.00
2022-12-01T06:42:34.838Z,0.00
2022-12-01T06:43:34.829Z,0.00
2022-12-01T06:44:34.846Z,0.00
2022-12-01T06:45:34.772Z,1.00
2022-12-01T06:46:34.778Z,1.00
2022-12-01T06:47:34.730Z,2.00
2022-12-01T06:48:34.700Z,1.00
2022-12-01T06:49:34.689Z,3.00
2022-12-01T06:50:34.697Z,2.00
2022-12-01T06:51:34.667Z,7.00
2022-12-01T06:52:34.659Z,5.00
2022-12-01T06:53:34.647Z,3.00
2022-12-01T06:54:34.661Z,8.00
2022-12-01T06:55:34.627Z,6.00
2022-12-01T06:56:34.627Z,6.00
2022-12-01T06:57:34.629Z,7.00
2022-12-01T06:58:34.597Z,10.00
2022-12-01T06:59:34.595Z,13.00
2022-12-01T07:00:34.590Z,15.00
2022-12-01T07:01:34.589Z,15.00
2022-12-01T07:02:34.638Z,18.00
2022-12-01T07:03:34.573Z,18.00
2022-12-01T07:04:34.536Z,18.00
2022-12-01T07:05:34.516Z,27.00
2022-12-01T07:06:34.555Z,18.00
2022-12-01T07:07:34.551Z,17.00
2022-12-01T07:08:34.518Z,24.00
2022-12-01T07:09:34.490Z,33.00
2022-12-01T07:10:34.476Z,34.00
2022-12-01T07:11:34.483Z,34.00
2022-12-01T07:12:34.446Z,32.00
2022-12-01T07:13:34.437Z,33.00
2022-12-01T07:14:34.438Z,39.00
2022-12-01T07:15:34.418Z,40.00
2022-12-01T07:16:34.482Z,50.00
2022-12-01T07:17:34.435Z,48.00
2022-12-01T07:18:34.405Z,65.00
2022-12-01T07:19:34.398Z,70.00
2022-12-01T07:20:34.368Z,80.00
2022-12-01T07:21:34.403Z,82.00
2022-12-01T07:22:34.395Z,85.00
2022-12-01T07:23:34.325Z,81.00
2022-12-01T07:24:34.324Z,75.00
2022-12-01T07:25:34.322Z,78.00
2022-12-01T07:26:34.335Z,86.00
2022-12-01T07:27:34.320Z,93.00
2022-12-01T07:28:34.304Z,104.00
2022-12-01T07:29:34.264Z,111.00
2022-12-01T07:30:34.304Z,116.00
2022-12-01T07:31:34.277Z,113.00
2022-12-01T07:32:34.244Z,115.00
2022-12-01T07:33:34.232Z,115.00
2022-12-01T07:34:34.213Z,134.00
2022-12-01T07:35:34.212Z,144.00
2022-12-01T07:36:34.209Z,149.00
2022-12-01T07:37:34.188Z,148.00
2022-12-01T07:38:34.173Z,138.00
2022-12-01T07:39:34.161Z,174.00
2022-12-01T07:40:34.191Z,235.00
2022-12-01T07:41:34.132Z,209.00
2022-12-01T07:42:34.143Z,220.00
2022-12-01T07:43:34.112Z,242.00
2022-12-01T07:44:34.112Z,239.00
2022-12-01T07:45:34.165Z,230.00
2022-12-01T07:46:34.165Z,233.00
2022-12-01T07:47:34.107Z,184.00
2022-12-01T07:48:34.061Z,204.00
2022-12-01T07:49:34.049Z,306.00
2022-12-01T07:50:34.034Z,279.00
2022-12-01T07:51:34.031Z,269.00
2022-12-01T07:52:34.103Z,260.00
2022-12-01T07:53:34.032Z,238.00
2022-12-01T07:54:34.040Z,222.00
2022-12-01T07:55:33.981Z,256.00
2022-12-01T07:56:33.972Z,303.00
2022-12-01T07:57:33.991Z,311.00
2022-12-01T07:58:33.949Z,341.00
2022-12-01T07:59:33.935Z,304.00
2022-12-01T08:00:33.929Z,273.00
2022-12-01T08:01:33.960Z,284.00
2022-12-01T08:02:33.964Z,316.00
2022-12-01T08:03:33.902Z,404.00
2022-12-01T08:04:33.881Z,446.00
2022-12-01T08:05:33.871Z,468.00
2022-12-01T08:06:33.857Z,464.00
2022-12-01T08:07:33.934Z,447.00
2022-12-01T08:08:33.841Z,418.00
2022-12-01T08:09:33.843Z,396.00
2022-12-01T08:10:33.809Z,433.00
2022-12-01T08:11:33.823Z,684.00
2022-12-01T08:12:33.817Z,566.00
2022-12-01T08:13:33.812Z,475.00
2022-12-01T08:14:33.771Z,460.00
2022-12-01T08:15:33.853Z,435.00
2022-12-01T08:16:33.748Z,469.00
2022-12-01T08:17:33.758Z,514.00
2022-12-01T08:18:33.753Z,481.00
2022-12-01T08:19:33.730Z,518.00
2022-12-01T08:20:33.709Z,471.00
2022-12-01T08:21:33.699Z,479.00
2022-12-01T08:22:33.759Z,504.00
2022-12-01T08:23:33.678Z,446.00
2022-12-01T08:24:33.668Z,483.00
2022-12-01T08:25:33.654Z,518.00
2022-12-01T08:26:33.679Z,513.00
2022-12-01T08:27:33.657Z,547.00
2022-12-01T08:28:33.628Z,548.00
2022-12-01T08:29:33.609Z,513.00
2022-12-01T08:30:33.605Z,675.00
2022-12-01T08:31:33.626Z,660.00
2022-12-01T08:32:33.576Z,737.00
2022-12-01T08:33:33.576Z,691.00
2022-12-01T08:34:33.696Z,620.00
2022-12-01T08:35:33.550Z,570.00
2022-12-01T08:36:33.538Z,503.00
2022-12-01T08:37:33.527Z,483.00
2022-12-01T08:38:33.528Z,486.00
2022-12-01T08:39:33.513Z,504.00
2022-12-01T08:40:33.494Z,491.00
2022-12-01T08:41:33.493Z,519.00
2022-12-01T08:42:33.474Z,467.00
2022-12-01T08:43:56.640Z,533.00
2022-12-01T08:44:34.478Z,750.00
2022-12-01T08:45:33.468Z,711.00
2022-12-01T08:46:33.568Z,793.00
2022-12-01T08:47:33.427Z,747.00
2022-12-01T08:48:33.449Z,639.00
2022-12-01T08:49:33.408Z,657.00
2022-12-01T08:50:33.384Z,631.00
2022-12-01T08:51:33.382Z,710.00
2022-12-01T08:52:33.365Z,819.00
2022-12-01T08:53:33.383Z,896.00
2022-12-01T08:54:33.343Z,878.00
2022-12-01T08:55:33.390Z,798.00
2022-12-01T08:56:33.316Z,779.00
2022-12-01T08:57:33.304Z,916.00
2022-12-01T08:58:33.335Z,982.00
2022-12-01T08:59:33.317Z,917.00
2022-12-01T09:00:33.306Z,878.00
2022-12-01T09:01:33.385Z,1288.00
2022-12-01T09:02:33.421Z,1461.00
2022-12-01T09:03:33.287Z,1411.00
2022-12-01T09:04:33.263Z,1466.00
2022-12-01T09:05:33.236Z,1449.00
2022-12-01T09:06:33.211Z,1630.00
2022-12-01T09:07:33.297Z,1434.00
2022-12-01T09:08:33.229Z,1239.00
2022-12-01T09:09:33.181Z,1269.00
2022-12-01T09:10:33.191Z,1189.00
2022-12-01T09:11:33.198Z,1050.00
2022-12-01T09:12:33.152Z,968.00
2022-12-01T09:13:33.180Z,887.00
2022-12-01T09:14:33.156Z,845.00
2022-12-01T09:15:33.152Z,882.00
2022-12-01T09:16:33.261Z,920.00
2022-12-01T09:17:33.179Z,976.00
2022-12-01T09:18:33.091Z,954.00
2022-12-01T09:19:33.087Z,984.00
2022-12-01T09:20:33.069Z,982.00
2022-12-01T09:21:33.108Z,904.00
2022-12-01T09:22:33.048Z,820.00
2022-12-01T09:23:33.043Z,808.00
2022-12-01T09:24:33.011Z,878.00
2022-12-01T09:25:33.011Z,794.00
2022-12-01T09:26:32.999Z,684.00
2022-12-01T09:27:33.001Z,832.00
2022-12-01T09:28:33.000Z,930.00
2022-12-01T09:29:32.976Z,891.00
2022-12-01T09:30:32.959Z,1028.00
2022-12-01T09:31:33.051Z,1500.00
2022-12-01T09:32:32.939Z,1599.00
2022-12-01T09:33:32.934Z,1468.00
2022-12-01T09:34:32.910Z,1513.00
2022-12-01T09:35:32.899Z,1433.00
2022-12-01T09:36:32.938Z,2026.00
2022-12-01T09:37:32.879Z,2676.00
2022-12-01T09:38:32.888Z,2346.00
2022-12-01T09:39:32.861Z,2333.00
2022-12-01T09:40:32.841Z,2356.00
2022-12-01T09:41:32.844Z,2086.00
2022-12-01T09:42:35.530Z,2004.00
2022-12-01T09:43:32.836Z,1970.00
2022-12-01T09:44:32.801Z,2221.00
2022-12-01T09:45:32.793Z,2177.00
2022-12-01T09:46:32.805Z,1765.00
2022-12-01T09:47:32.768Z,1794.00
2022-12-01T09:48:32.771Z,1784.00
2022-12-01T09:49:32.761Z,1697.00
2022-12-01T09:50:32.749Z,1713.00
2022-12-01T09:51:32.728Z,1830.00
2022-12-01T09:52:32.717Z,1800.00
2022-12-01T09:53:32.719Z,1682.00
2022-12-01T09:54:32.690Z,1518.00
2022-12-01T09:55:32.690Z,1493.00
2022-12-01T09:56:32.670Z,1689.00
2022-12-01T09:57:32.668Z,1750.00
2022-12-01T09:58:32.684Z,1663.00
2022-12-01T09:59:32.639Z,1583.00
2022-12-01T10:00:32.732Z,1543.00
2022-12-01T10:01:32.667Z,1436.00
2022-12-01T10:02:32.685Z,1376.00
2022-12-01T10:03:32.611Z,1311.00
2022-12-01T10:04:32.736Z,1276.00
2022-12-01T10:05:32.701Z,1235.00
2022-12-01T10:06:32.600Z,1174.00
2022-12-01T10:07:32.609Z,1397.00
2022-12-01T10:08:32.564Z,1536.00
2022-12-01T10:09:32.554Z,1599.00
2022-12-01T10:10:32.542Z,1448.00
2022-12-01T10:11:32.508Z,1233.00
2022-12-01T10:12:32.490Z,1299.00
2022-12-01T10:13:32.533Z,1277.00
2022-12-01T10:14:32.484Z,1250.00
2022-12-01T10:15:32.465Z,1314.00
2022-12-01T10:16:32.524Z,1242.00
2022-12-01T10:17:32.449Z,1256.00
2022-12-01T10:18:32.427Z,1327.00
2022-12-01T10:19:32.466Z,1372.00
2022-12-01T10:20:32.404Z,1388.00
2022-12-01T10:21:32.447Z,1409.00
2022-12-01T10:22:32.415Z,1391.00
2022-12-01T10:23:32.383Z,1313.00
2022-12-01T10:24:32.377Z,1497.00
2022-12-01T10:25:32.375Z,1479.00
2022-12-01T10:26:32.336Z,1416.00
2022-12-01T10:27:32.344Z,1408.00
2022-12-01T10:28:32.358Z,1495.00
2022-12-01T10:29:32.358Z,1540.00
2022-12-01T10:30:32.294Z,1476.00
2022-12-01T10:31:32.411Z,1404.00
2022-12-01T10:32:32.275Z,1498.00
2022-12-01T10:33:32.303Z,1603.00
2022-12-01T10:34:32.264Z,1636.00
2022-12-01T10:35:32.273Z,1484.00
2022-12-01T10:36:32.234Z,1402.00
2022-12-01T10:37:32.253Z,1637.00
2022-12-01T10:38:32.209Z,1706.00
2022-12-01T10:39:32.217Z,1577.00
2022-12-01T10:40:32.194Z,1729.00
2022-12-01T10:41:32.191Z,1902.00
2022-12-01T10:42:32.162Z,1642.00
2022-12-01T10:43:32.161Z,1988.00
2022-12-01T10:44:32.162Z,2102.00
2022-12-01T10:45:32.157Z,2415.00
2022-12-01T10:46:32.121Z,2469.00
2022-12-01T10:47:32.132Z,2659.00
2022-12-01T10:48:32.152Z,2738.00
2022-12-01T10:49:32.126Z,3160.00
2022-12-01T10:50:32.155Z,3541.00
2022-12-01T10:51:32.092Z,3512.00
2022-12-01T10:52:32.061Z,3346.00
2022-12-01T10:53:32.041Z,2973.00
2022-12-01T10:54:32.051Z,2514.00
2022-12-01T10:55:32.024Z,2418.00
2022-12-01T10:56:32.081Z,2111.00
2022-12-01T10:57:32.071Z,1728.00
2022-12-01T10:58:32.029Z,1709.00
2022-12-01T10:59:32.001Z,1757.00
2022-12-01T11:01:33.129Z,1811.00
2022-12-01T11:02:32.089Z,2073.00
2022-12-01T11:03:32.269Z,1993.00
2022-12-01T11:04:31.951Z,1780.00
2022-12-01T11:05:31.933Z,1602.00
2022-12-01T11:06:31.916Z,1728.00
2022-12-01T11:07:31.924Z,1691.00
2022-12-01T11:08:31.884Z,1536.00
2022-12-01T11:09:31.878Z,1509.00
2022-12-01T11:10:31.879Z,1490.00
2022-12-01T11:11:31.848Z,1625.00
2022-12-01T11:12:31.856Z,2425.00
2022-12-01T11:13:31.827Z,2626.00
2022-12-01T11:14:31.846Z,2005.00
2022-12-01T11:15:31.810Z,2035.00
2022-12-01T11:16:31.834Z,1786.00
2022-12-01T11:17:32.507Z,2115.00
2022-12-01T11:18:31.834Z,2987.00
2022-12-01T11:19:31.817Z,3626.00
2022-12-01T11:20:31.860Z,3894.00
2022-12-01T11:21:31.759Z,3924.00
2022-12-01T11:22:31.760Z,3864.00
2022-12-01T11:23:31.727Z,3693.00
2022-12-01T11:24:31.801Z,3591.00
2022-12-01T11:25:31.709Z,3578.00
2022-12-01T11:26:31.753Z,3674.00
2022-12-01T11:27:31.720Z,3757.00
2022-12-01T11:28:31.668Z,3858.00
2022-12-01T11:29:31.709Z,3908.00
2022-12-01T11:30:31.651Z,3859.00
2022-12-01T11:31:31.667Z,3775.00
2022-12-01T11:32:31.628Z,3779.00
2022-12-01T11:33:31.616Z,4051.00
2022-12-01T11:34:31.600Z,4110.00
2022-12-01T11:35:31.611Z,4113.00
2022-12-01T11:36:31.577Z,4088.00
2022-12-01T11:37:31.568Z,3937.00
2022-12-01T11:38:31.616Z,3789.00
2022-12-01T11:39:31.568Z,3694.00
2022-12-01T11:40:31.556Z,3576.00
2022-12-01T11:41:31.529Z,3462.00
2022-12-01T11:42:31.561Z,3431.00
2022-12-01T11:43:31.505Z,3399.00
2022-12-01T11:45:32.561Z,3736.00
2022-12-01T11:46:31.505Z,3761.00
2022-12-01T11:47:31.449Z,3556.00
2022-12-01T11:48:31.516Z,3546.00
2022-12-01T11:49:31.571Z,3766.00
2022-12-01T11:50:31.466Z,3817.00
2022-12-01T11:51:31.416Z,3773.00
2022-12-01T11:52:31.419Z,3838.00
2022-12-01T11:53:31.406Z,3844.00
2022-12-01T11:54:31.377Z,3943.00
2022-12-01T11:55:31.395Z,3950.00
2022-12-01T11:56:31.365Z,3882.00
2022-12-01T11:57:34.548Z,3757.00
2022-12-01T11:58:31.420Z,3514.00
2022-12-01T11:59:31.318Z,3820.00
2022-12-01T12:00:31.363Z,4240.00
2022-12-01T12:01:31.316Z,4320.00
2022-12-01T12:02:31.388Z,3961.00
2022-12-01T12:03:31.347Z,3740.00
2022-12-01T12:04:31.318Z,3836.00
2022-12-01T12:05:31.267Z,3932.00
2022-12-01T12:06:39.985Z,4377.00
2022-12-01T12:07:32.286Z,4699.00
2022-12-01T12:08:31.309Z,4646.00
2022-12-01T12:09:31.233Z,4486.00
2022-12-01T12:10:31.331Z,4156.00
2022-12-01T12:11:31.212Z,3692.00
2022-12-01T12:12:31.220Z,3256.00
2022-12-01T12:13:31.254Z,3059.00
2022-12-01T12:14:31.167Z,2998.00
2022-12-01T12:15:31.163Z,3175.00
2022-12-01T12:16:33.459Z,3449.00
2022-12-01T12:17:31.166Z,3246.00
2022-12-01T12:18:31.128Z,2794.00
2022-12-01T12:19:39.338Z,2642.00
2022-12-01T12:20:32.102Z,2744.00
2022-12-01T12:21:31.087Z,2439.00
2022-12-01T12:22:31.082Z,2143.00
2022-12-01T12:23:31.063Z,2047.00
2022-12-01T12:24:31.052Z,1733.00
2022-12-01T12:25:31.068Z,1601.00
2022-12-01T12:26:31.073Z,1545.00
2022-12-01T12:27:31.027Z,1374.00
2022-12-01T12:28:31.045Z,1161.00
2022-12-01T12:29:31.002Z,1110.00
2022-12-01T12:30:31.034Z,1210.00
2022-12-01T12:31:30.988Z,1374.00
2022-12-01T12:32:30.971Z,1435.00
2022-12-01T12:33:30.941Z,1350.00
2022-12-01T12:34:30.954Z,1365.00
2022-12-01T12:35:30.970Z,1532.00
2022-12-01T12:36:31.001Z,1590.00
2022-12-01T12:37:30.931Z,1558.00
2022-12-01T12:38:30.900Z,1475.00
2022-12-01T12:39:30.890Z,1477.00
2022-12-01T12:40:30.883Z,1571.00
2022-12-01T12:41:30.881Z,1619.00
2022-12-01T12:42:30.863Z,1605.00
2022-12-01T12:43:30.839Z,1686.00
2022-12-01T12:44:36.645Z,1804.00
2022-12-01T12:45:31.831Z,2145.00
2022-12-01T12:46:30.841Z,2572.00
2022-12-01T12:47:30.798Z,2665.00
2022-12-01T12:48:30.800Z,2278.00
2022-12-01T12:49:30.779Z,2025.00
2022-12-01T12:50:30.851Z,2071.00